createdAt,value
2022-10-01T00:01:16.307Z,12.17
2022-10-01T00:03:46.730Z,12.25
2022-10-01T00:06:17.056Z,12.40
2022-10-01T00:08:47.592Z,12.39
2022-10-01T00:11:18.190Z,12.27
2022-10-01T00:13:48.559Z,12.21
2022-10-01T00:16:19.483Z,12.10
2022-10-01T00:18:49.707Z,12.08
2022-10-01T00:21:19.812Z,12.19
2022-10-01T00:23:49.808Z,12.15
2022-10-01T00:26:20.080Z,12.10
2022-10-01T00:28:50.419Z,11.95
2022-10-01T00:31:21.032Z,11.98
2022-10-01T00:33:51.595Z,11.75
2022-10-01T00:36:21.901Z,11.90
2022-10-01T00:38:52.192Z,11.91
2022-10-01T00:41:22.529Z,11.83
2022-10-01T00:43:52.502Z,11.80
2022-10-01T00:46:22.618Z,11.77
2022-10-01T00:48:52.665Z,11.77
2022-10-01T00:51:23.001Z,11.61
2022-10-01T00:53:53.722Z,11.49
2022-10-01T00:56:24.350Z,11.51
2022-10-01T00:58:54.995Z,11.53
2022-10-01T01:01:25.696Z,11.59
2022-10-01T01:03:56.190Z,11.66
2022-10-01T01:06:27.203Z,11.76
2022-10-01T01:08:56.861Z,11.72
2022-10-01T01:11:27.037Z,11.71
2022-10-01T01:13:57.511Z,11.65
2022-10-01T01:16:28.041Z,11.59
2022-10-01T01:18:58.672Z,11.56
2022-10-01T01:21:28.911Z,11.45
2022-10-01T01:23:59.255Z,11.34
2022-10-01T01:26:29.506Z,11.25
2022-10-01T01:29:00.373Z,11.28
2022-10-01T01:31:30.462Z,11.30
2022-10-01T01:34:00.472Z,11.30
2022-10-01T01:36:30.633Z,11.31
2022-10-01T01:39:00.651Z,11.31
2022-10-01T01:41:31.685Z,11.17
2022-10-01T01:44:01.747Z,11.20
2022-10-01T01:46:32.120Z,11.15
2022-10-01T01:49:02.268Z,11.19
2022-10-01T01:51:33.001Z,11.19
2022-10-01T01:54:03.430Z,11.20
2022-10-01T01:56:34.176Z,11.19
2022-10-01T01:59:05.143Z,11.14
2022-10-01T02:01:35.706Z,11.09
2022-10-01T02:04:05.291Z,11.08
2022-10-01T02:06:36.002Z,11.03
2022-10-01T02:09:06.739Z,10.91
2022-10-01T02:11:36.853Z,10.94
2022-10-01T02:14:07.211Z,10.88
2022-10-01T02:16:37.606Z,10.87
2022-10-01T02:19:07.852Z,10.88
2022-10-01T02:21:38.473Z,10.85
2022-10-01T02:24:09.006Z,10.85
2022-10-01T02:26:39.308Z,10.81
2022-10-01T02:29:09.892Z,10.80
2022-10-01T02:31:40.256Z,10.84
2022-10-01T02:34:12.650Z,10.95
2022-10-01T02:36:41.505Z,10.95
2022-10-01T02:39:12.311Z,10.95
2022-10-01T02:41:42.299Z,10.89
2022-10-01T02:44:12.405Z,10.86
2022-10-01T02:46:42.661Z,10.75
2022-10-01T02:49:13.168Z,10.69
2022-10-01T02:51:43.738Z,10.54
2022-10-01T02:54:13.916Z,10.53
2022-10-01T02:56:48.787Z,10.58
2022-10-01T02:59:14.419Z,10.59
2022-10-01T03:01:44.930Z,10.51
2022-10-01T03:04:15.356Z,10.63
2022-10-01T03:06:46.166Z,10.59
2022-10-01T03:09:16.492Z,10.51
2022-10-01T03:11:47.016Z,10.64
2022-10-01T03:14:17.444Z,10.71
2022-10-01T03:16:47.965Z,10.71
2022-10-01T03:19:18.678Z,10.57
2022-10-01T03:21:48.720Z,10.51
2022-10-01T03:24:19.063Z,10.48
2022-10-01T03:26:49.680Z,10.43
2022-10-01T03:29:20.078Z,10.33
2022-10-01T03:31:50.579Z,10.38
2022-10-01T03:34:20.616Z,10.23
2022-10-01T03:36:51.470Z,10.37
2022-10-01T03:39:21.719Z,10.29
2022-10-01T03:41:51.990Z,10.23
2022-10-01T03:44:22.608Z,10.23
2022-10-01T03:46:53.266Z,10.14
2022-10-01T03:49:23.745Z,10.22
2022-10-01T03:51:54.360Z,10.21
2022-10-01T03:54:24.904Z,10.26
2022-10-01T03:56:55.510Z,10.15
2022-10-01T03:59:25.807Z,10.23
2022-10-01T04:01:56.539Z,10.33
2022-10-01T04:04:26.996Z,10.32
2022-10-01T04:06:57.573Z,10.15
2022-10-01T04:09:28.178Z,10.19
2022-10-01T04:11:58.414Z,10.25
2022-10-01T04:14:29.011Z,10.16
2022-10-01T04:16:59.597Z,10.28
2022-10-01T04:19:29.898Z,10.27
2022-10-01T04:22:00.469Z,10.33
2022-10-01T04:24:31.071Z,10.37
2022-10-01T04:27:01.653Z,10.37
2022-10-01T04:29:33.928Z,10.41
2022-10-01T04:32:02.849Z,10.40
2022-10-01T04:34:33.431Z,10.39
2022-10-01T04:37:04.009Z,10.47
2022-10-01T04:39:34.597Z,10.54
2022-10-01T04:42:04.873Z,10.53
2022-10-01T04:44:35.465Z,10.40
2022-10-01T04:47:06.077Z,10.30
2022-10-01T04:49:36.604Z,10.31
2022-10-01T04:52:07.253Z,10.44
2022-10-01T04:54:37.788Z,10.40
2022-10-01T04:57:07.974Z,10.35
2022-10-01T04:59:38.646Z,10.20
2022-10-01T05:02:09.217Z,10.39
2022-10-01T05:04:39.718Z,10.39
2022-10-01T05:07:10.290Z,10.40
2022-10-01T05:09:40.878Z,10.17
2022-10-01T05:12:11.431Z,10.35
2022-10-01T05:14:42.109Z,10.12
2022-10-01T05:17:12.677Z,10.22
2022-10-01T05:19:43.204Z,10.27
2022-10-01T05:22:13.824Z,10.28
2022-10-01T05:24:44.367Z,10.27
2022-10-01T05:27:14.938Z,10.23
2022-10-01T05:29:45.552Z,10.37
2022-10-01T05:32:16.196Z,10.51
2022-10-01T05:34:51.199Z,10.52
2022-10-01T05:37:17.298Z,10.61
2022-10-01T05:39:47.858Z,10.64
2022-10-01T05:42:18.457Z,10.62
2022-10-01T05:44:48.988Z,10.51
2022-10-01T05:47:19.552Z,10.57
2022-10-01T05:49:50.114Z,10.58
2022-10-01T05:52:20.696Z,10.42
2022-10-01T05:54:51.319Z,10.54
2022-10-01T05:57:21.850Z,10.57
2022-10-01T05:59:52.349Z,10.43
2022-10-01T06:02:22.986Z,10.62
2022-10-01T06:04:53.483Z,10.64
2022-10-01T06:07:24.035Z,10.64
2022-10-01T06:09:54.738Z,10.80
2022-10-01T06:12:25.148Z,10.81
2022-10-01T06:14:55.713Z,10.81
2022-10-01T06:17:26.275Z,10.79
2022-10-01T06:19:56.922Z,10.94
2022-10-01T06:22:27.452Z,10.88
2022-10-01T06:24:57.913Z,11.05
2022-10-01T06:27:28.520Z,10.93
2022-10-01T06:29:59.026Z,10.89
2022-10-01T06:32:34.081Z,10.96
2022-10-01T06:35:00.090Z,10.93
2022-10-01T06:37:30.739Z,10.80
2022-10-01T06:40:01.179Z,10.93
2022-10-01T06:42:31.722Z,10.95
2022-10-01T06:45:02.250Z,11.00
2022-10-01T06:47:32.808Z,11.15
2022-10-01T06:50:03.354Z,11.22
2022-10-01T06:52:33.865Z,11.30
2022-10-01T06:55:04.408Z,11.38
2022-10-01T06:57:34.924Z,11.24
2022-10-01T07:00:05.485Z,11.31
2022-10-01T07:02:36.018Z,11.46
2022-10-01T07:05:06.530Z,11.42
2022-10-01T07:07:37.086Z,11.43
2022-10-01T07:10:07.555Z,11.38
2022-10-01T07:15:08.718Z,11.45
2022-10-01T07:17:39.138Z,11.54
2022-10-01T07:20:09.663Z,11.48
2022-10-01T07:22:40.177Z,11.59
2022-10-01T07:25:10.708Z,11.46
2022-10-01T07:27:41.200Z,11.55
2022-10-01T07:30:11.734Z,11.61
2022-10-01T07:32:42.354Z,11.57
2022-10-01T07:35:12.796Z,11.90
2022-10-01T07:37:43.273Z,11.88
2022-10-01T07:40:13.806Z,11.87
2022-10-01T07:42:44.306Z,11.78
2022-10-01T07:45:14.808Z,11.92
2022-10-01T07:47:45.410Z,11.95
2022-10-01T07:50:15.931Z,11.90
2022-10-01T07:52:46.340Z,12.10
2022-10-01T07:55:16.885Z,12.12
2022-10-01T07:57:47.377Z,11.95
2022-10-01T08:00:17.897Z,12.17
2022-10-01T08:02:48.414Z,12.00
2022-10-01T08:05:18.939Z,12.21
2022-10-01T08:07:49.442Z,12.28
2022-10-01T08:10:19.951Z,12.38
2022-10-01T08:12:50.431Z,12.56
2022-10-01T08:15:20.790Z,12.59
2022-10-01T08:17:51.276Z,12.62
2022-10-01T08:20:21.684Z,12.59
2022-10-01T08:22:52.141Z,12.65
2022-10-01T08:25:22.361Z,12.63
2022-10-01T08:27:52.979Z,12.71
2022-10-01T08:30:23.389Z,12.70
2022-10-01T08:32:53.907Z,12.85
2022-10-01T08:35:24.400Z,12.76
2022-10-01T08:37:54.937Z,12.88
2022-10-01T08:40:25.687Z,12.90
2022-10-01T08:42:55.886Z,13.03
2022-10-01T08:45:26.613Z,13.18
2022-10-01T08:47:57.864Z,13.25
2022-10-01T08:50:27.304Z,13.32
2022-10-01T08:52:57.754Z,13.23
2022-10-01T08:55:28.248Z,13.34
2022-10-01T08:57:58.759Z,13.33
2022-10-01T09:00:29.211Z,13.33
2022-10-01T09:02:59.628Z,13.41
2022-10-01T09:05:30.165Z,13.38
2022-10-01T09:08:00.587Z,13.27
2022-10-01T09:10:31.012Z,13.39
2022-10-01T09:13:01.490Z,13.40
2022-10-01T09:15:31.977Z,13.39
2022-10-01T09:18:02.137Z,13.45
2022-10-01T09:20:32.598Z,13.63
2022-10-01T09:23:03.051Z,13.78
2022-10-01T09:25:33.500Z,13.97
2022-10-01T09:28:04.076Z,13.95
2022-10-01T09:30:34.449Z,13.90
2022-10-01T09:33:04.830Z,14.05
2022-10-01T09:35:35.019Z,13.99
2022-10-01T09:38:05.510Z,14.09
2022-10-01T09:40:35.879Z,14.02
2022-10-01T09:43:06.308Z,13.89
2022-10-01T09:45:36.806Z,13.93
2022-10-01T09:48:07.196Z,13.90
2022-10-01T09:50:37.743Z,14.10
2022-10-01T09:53:08.387Z,14.10
2022-10-01T09:55:38.722Z,14.20
2022-10-01T09:58:09.141Z,14.34
2022-10-01T10:00:39.592Z,14.53
2022-10-01T10:03:10.124Z,14.64
2022-10-01T10:05:40.518Z,14.55
2022-10-01T10:08:10.946Z,14.53
2022-10-01T10:10:41.323Z,14.65
2022-10-01T10:13:11.722Z,14.63
2022-10-01T10:15:42.250Z,14.52
2022-10-01T10:18:12.571Z,14.59
2022-10-01T10:20:43.001Z,14.63
2022-10-01T10:23:13.443Z,14.58
2022-10-01T10:25:43.943Z,14.52
2022-10-01T10:28:14.304Z,14.66
2022-10-01T10:30:44.695Z,14.80
2022-10-01T10:33:15.109Z,14.90
2022-10-01T10:35:45.500Z,15.03
2022-10-01T10:38:15.912Z,15.06
2022-10-01T10:40:46.321Z,14.95
2022-10-01T10:43:16.706Z,14.85
2022-10-01T10:45:47.146Z,14.75
2022-10-01T10:48:17.596Z,14.68
2022-10-01T10:50:47.934Z,14.66
2022-10-01T10:53:18.361Z,14.68
2022-10-01T10:55:48.755Z,14.72
2022-10-01T10:58:19.177Z,14.77
2022-10-01T11:00:49.598Z,14.77
2022-10-01T11:03:20.044Z,14.72
2022-10-01T11:05:50.434Z,14.69
2022-10-01T11:08:20.812Z,14.61
2022-10-01T11:10:51.266Z,14.44
2022-10-01T11:13:21.640Z,14.45
2022-10-01T11:15:52.149Z,14.42
2022-10-01T11:18:22.734Z,14.45
2022-10-01T11:20:52.888Z,14.48
2022-10-01T11:23:23.273Z,14.54
2022-10-01T11:25:53.690Z,14.32
2022-10-01T11:28:24.175Z,14.26
2022-10-01T11:30:54.628Z,14.31
2022-10-01T11:33:24.988Z,14.39
2022-10-01T11:35:55.395Z,14.45
2022-10-01T11:38:25.821Z,14.30
2022-10-01T11:40:56.236Z,14.40
2022-10-01T11:43:26.649Z,14.44
2022-10-01T11:45:57.213Z,14.29
2022-10-01T11:48:27.505Z,14.31
2022-10-01T11:50:57.903Z,13.78
2022-10-01T11:53:28.311Z,13.71
2022-10-01T11:55:58.758Z,13.47
2022-10-01T11:58:29.209Z,13.10
2022-10-01T12:00:59.647Z,13.31
2022-10-01T12:03:30.100Z,13.22
2022-10-01T12:06:00.544Z,13.05
2022-10-01T12:08:31.016Z,13.11
2022-10-01T12:11:01.446Z,13.07
2022-10-01T12:13:31.912Z,13.06
2022-10-01T12:16:02.385Z,13.09
2022-10-01T12:18:32.831Z,13.04
2022-10-01T12:21:03.243Z,12.98
2022-10-01T12:23:33.775Z,13.04
2022-10-01T12:26:04.203Z,13.17
2022-10-01T12:28:34.575Z,13.32
2022-10-01T12:31:05.138Z,13.45
2022-10-01T12:33:35.520Z,13.54
2022-10-01T12:36:06.036Z,13.42
2022-10-01T12:38:36.380Z,13.39
2022-10-01T12:41:06.822Z,13.50
2022-10-01T12:43:37.264Z,13.54
2022-10-01T12:46:07.785Z,13.59
2022-10-01T12:48:38.174Z,13.77
2022-10-01T12:51:08.720Z,13.89
2022-10-01T12:53:39.070Z,13.96
2022-10-01T12:56:09.649Z,13.90
2022-10-01T12:58:39.981Z,13.96
2022-10-01T13:01:10.456Z,13.97
2022-10-01T13:03:40.939Z,14.21
2022-10-01T13:06:11.235Z,14.33
2022-10-01T13:08:41.667Z,14.33
2022-10-01T13:11:12.078Z,14.35
2022-10-01T13:13:42.465Z,14.31
2022-10-01T13:16:12.923Z,14.32
2022-10-01T13:18:43.315Z,14.31
2022-10-01T13:21:13.819Z,14.30
2022-10-01T13:23:44.115Z,14.33
2022-10-01T13:26:14.527Z,14.35
2022-10-01T13:28:44.998Z,14.32
2022-10-01T13:31:15.401Z,14.32
2022-10-01T13:33:45.759Z,14.30
2022-10-01T13:36:16.143Z,14.34
2022-10-01T13:38:46.541Z,14.28
2022-10-01T13:41:17.037Z,14.31
2022-10-01T13:43:47.424Z,14.31
2022-10-01T13:46:17.850Z,14.33
2022-10-01T13:48:48.253Z,14.34
2022-10-01T13:51:18.637Z,14.39
2022-10-01T13:53:49.012Z,14.33
2022-10-01T13:56:19.166Z,14.17
2022-10-01T13:58:50.061Z,14.25
2022-10-01T14:01:24.109Z,14.38
2022-10-01T14:03:50.971Z,14.38
2022-10-01T14:06:21.404Z,14.30
2022-10-01T14:08:51.747Z,14.40
2022-10-01T14:11:22.168Z,14.51
2022-10-01T14:13:52.516Z,14.45
2022-10-01T14:16:22.930Z,14.61
2022-10-01T14:18:53.303Z,14.50
2022-10-01T14:21:23.778Z,14.29
2022-10-01T14:23:54.084Z,14.36
2022-10-01T14:26:24.445Z,14.51
2022-10-01T14:28:54.841Z,14.48
2022-10-01T14:31:25.329Z,14.58
2022-10-01T14:33:55.710Z,14.53
2022-10-01T14:36:26.021Z,14.61
2022-10-01T14:38:56.412Z,14.64
2022-10-01T14:41:26.823Z,14.58
2022-10-01T14:43:57.318Z,14.71
2022-10-01T14:46:27.678Z,14.82
2022-10-01T14:48:58.006Z,14.75
2022-10-01T14:51:28.402Z,14.78
2022-10-01T14:53:58.799Z,14.49
2022-10-01T14:56:29.213Z,14.52
2022-10-01T14:58:59.613Z,14.47
2022-10-01T15:01:30.090Z,14.56
2022-10-01T15:04:00.497Z,14.46
2022-10-01T15:06:30.942Z,14.20
2022-10-01T15:09:00.976Z,14.23
2022-10-01T15:11:31.561Z,14.33
2022-10-01T15:14:01.805Z,14.28
2022-10-01T15:16:32.753Z,14.33
2022-10-01T15:19:02.688Z,14.47
2022-10-01T15:21:33.086Z,14.47
2022-10-01T15:24:03.427Z,14.38
2022-10-01T15:26:34.213Z,14.51
2022-10-01T15:29:04.254Z,14.47
2022-10-01T15:31:34.802Z,14.43
2022-10-01T15:34:05.081Z,14.34
2022-10-01T15:36:35.922Z,14.34
2022-10-01T15:39:05.894Z,14.22
2022-10-01T15:41:36.327Z,14.24
2022-10-01T15:44:06.722Z,14.14
2022-10-01T15:46:37.314Z,14.02
2022-10-01T15:49:07.597Z,13.93
2022-10-01T15:51:38.023Z,13.97
2022-10-01T15:54:08.441Z,13.87
2022-10-01T15:56:38.877Z,13.89
2022-10-01T15:59:08.952Z,13.89
2022-10-01T16:01:39.445Z,13.71
2022-10-01T16:04:09.807Z,13.81
2022-10-01T16:06:40.253Z,13.88
2022-10-01T16:09:10.667Z,13.95
2022-10-01T16:11:41.098Z,13.99
2022-10-01T16:14:11.520Z,13.83
2022-10-01T16:16:42.017Z,13.99
2022-10-01T16:19:12.416Z,13.56
2022-10-01T16:21:42.832Z,13.61
2022-10-01T16:24:13.349Z,13.62
2022-10-01T16:26:43.740Z,13.66
2022-10-01T16:29:14.217Z,13.68
2022-10-01T16:31:44.787Z,13.73
2022-10-01T16:34:15.629Z,13.82
2022-10-01T16:36:46.472Z,13.95
2022-10-01T16:39:16.785Z,14.07
2022-10-01T16:42:01.370Z,14.12
2022-10-01T16:44:17.656Z,14.05
2022-10-01T16:46:48.087Z,14.09
2022-10-01T16:49:18.540Z,14.14
2022-10-01T16:51:49.132Z,14.22
2022-10-01T16:54:19.381Z,14.23
2022-10-01T16:56:49.815Z,14.23
2022-10-01T16:59:20.361Z,14.18
2022-10-01T17:01:50.713Z,13.97
2022-10-01T17:04:21.207Z,13.54
2022-10-01T17:06:51.516Z,13.72
2022-10-01T17:09:21.961Z,13.66
2022-10-01T17:11:52.397Z,13.59
2022-10-01T17:14:22.827Z,13.61
2022-10-01T17:16:53.430Z,13.57
2022-10-01T17:19:23.733Z,13.59
2022-10-01T17:21:54.319Z,13.61
2022-10-01T17:24:24.302Z,13.52
2022-10-01T17:26:54.755Z,13.49
2022-10-01T17:29:25.283Z,13.54
2022-10-01T17:31:55.685Z,13.39
2022-10-01T17:34:26.103Z,13.31
2022-10-01T17:36:56.559Z,13.23
2022-10-01T17:39:27.102Z,13.26
2022-10-01T17:41:57.449Z,13.16
2022-10-01T17:44:27.899Z,13.18
2022-10-01T17:46:58.355Z,13.13
2022-10-01T17:49:28.848Z,13.07
2022-10-01T17:51:59.290Z,12.98
2022-10-01T17:54:29.753Z,13.05
2022-10-01T17:57:00.199Z,13.06
2022-10-01T17:59:30.661Z,13.12
2022-10-01T18:02:01.180Z,13.03
2022-10-01T18:04:31.589Z,13.04
2022-10-01T18:07:02.047Z,12.86
2022-10-01T18:09:32.500Z,12.99
2022-10-01T18:12:02.946Z,13.00
2022-10-01T18:14:33.423Z,13.00
2022-10-01T18:17:03.856Z,12.98
2022-10-01T18:19:54.171Z,12.90
2022-10-01T18:22:13.372Z,12.90
2022-10-01T18:24:35.209Z,12.84
2022-10-01T18:27:05.662Z,12.72
2022-10-01T18:29:36.105Z,12.80
2022-10-01T18:32:06.562Z,12.89
2022-10-01T18:34:36.997Z,13.01
2022-10-01T18:37:07.414Z,12.76
2022-10-01T18:39:37.873Z,12.86
2022-10-01T18:42:08.032Z,12.85
2022-10-01T18:44:38.484Z,12.84
2022-10-01T18:47:08.926Z,12.85
2022-10-01T18:49:39.375Z,12.80
2022-10-01T18:52:09.825Z,12.75
2022-10-01T18:54:40.286Z,12.84
2022-10-01T18:57:10.862Z,12.91
2022-10-01T18:59:41.230Z,12.94
2022-10-01T19:02:11.809Z,12.93
2022-10-01T19:04:42.142Z,12.93
2022-10-01T19:07:12.585Z,12.86
2022-10-01T19:09:43.040Z,12.94
2022-10-01T19:12:13.474Z,12.99
2022-10-01T19:14:43.923Z,13.10
2022-10-01T19:17:14.375Z,13.15
2022-10-01T19:19:44.804Z,13.21
2022-10-01T19:22:15.235Z,13.26
2022-10-01T19:24:45.664Z,13.21
2022-10-01T19:27:16.089Z,13.16
2022-10-01T19:29:46.551Z,13.19
2022-10-01T19:32:16.983Z,13.13
2022-10-01T19:34:47.425Z,13.12
2022-10-01T19:37:17.853Z,13.12
2022-10-01T19:39:48.274Z,13.08
2022-10-01T19:42:18.729Z,13.03
2022-10-01T19:44:49.149Z,12.99
2022-10-01T19:47:19.590Z,13.06
2022-10-01T19:49:50.046Z,13.08
2022-10-01T19:52:20.525Z,13.05
2022-10-01T19:54:50.922Z,12.97
2022-10-01T19:57:21.358Z,12.87
2022-10-01T19:59:51.825Z,12.81
2022-10-01T20:02:22.304Z,12.72
2022-10-01T20:04:52.759Z,12.70
2022-10-01T20:07:23.322Z,12.60
2022-10-01T20:09:53.658Z,12.59
2022-10-01T20:12:24.330Z,12.55
2022-10-01T20:14:54.674Z,12.55
2022-10-01T20:17:25.285Z,12.52
2022-10-01T20:19:55.631Z,12.36
2022-10-01T20:22:25.888Z,12.45
2022-10-01T20:24:56.226Z,12.46
2022-10-01T20:27:26.703Z,12.52
2022-10-01T20:29:56.894Z,12.52
2022-10-01T20:32:27.319Z,12.46
2022-10-01T20:34:58.258Z,12.36
2022-10-01T20:37:28.551Z,12.40
2022-10-01T20:39:59.287Z,12.41
2022-10-01T20:42:29.263Z,12.29
2022-10-01T20:44:59.380Z,12.23
2022-10-01T20:47:29.925Z,12.27
2022-10-01T20:50:00.484Z,12.19
2022-10-01T20:52:31.102Z,12.21
2022-10-01T20:55:01.414Z,12.24
2022-10-01T20:57:31.959Z,12.20
2022-10-01T21:00:02.528Z,12.22
2022-10-01T21:02:33.237Z,12.22
2022-10-01T21:05:03.893Z,12.28
2022-10-01T21:07:34.003Z,12.34
2022-10-01T21:10:04.494Z,12.32
2022-10-01T21:12:35.085Z,12.23
2022-10-01T21:15:05.363Z,12.16
2022-10-01T21:17:36.219Z,12.14
2022-10-01T21:20:06.687Z,12.07
2022-10-01T21:22:37.395Z,12.03
2022-10-01T21:25:07.910Z,11.99
2022-10-01T21:27:37.930Z,11.97
2022-10-01T21:30:08.050Z,12.00
2022-10-01T21:32:38.813Z,11.92
2022-10-01T21:35:09.148Z,11.89
2022-10-01T21:37:39.305Z,11.93
2022-10-01T21:40:09.617Z,11.92
2022-10-01T21:42:39.874Z,11.99
2022-10-01T21:45:09.825Z,11.99
2022-10-01T21:47:39.850Z,11.89
2022-10-01T21:50:10.697Z,11.95
2022-10-01T21:52:41.577Z,11.94
2022-10-01T21:55:12.458Z,11.96
2022-10-01T21:57:42.967Z,11.94
2022-10-01T22:00:12.979Z,11.92
2022-10-01T22:02:43.547Z,11.88
2022-10-01T22:05:13.802Z,11.78
2022-10-01T22:07:43.944Z,11.76
2022-10-01T22:10:14.136Z,11.74
2022-10-01T22:12:44.357Z,11.70
2022-10-01T22:15:14.643Z,11.64
2022-10-01T22:17:44.934Z,11.61
2022-10-01T22:20:15.284Z,11.73
2022-10-01T22:22:45.202Z,11.73
2022-10-01T22:25:15.220Z,11.55
2022-10-01T22:27:45.450Z,11.67
2022-10-01T22:30:15.826Z,11.57
2022-10-01T22:32:46.375Z,11.62
2022-10-01T22:35:16.743Z,11.64
2022-10-01T22:37:47.176Z,11.53
2022-10-01T22:40:17.965Z,11.69
2022-10-01T22:42:48.528Z,11.80
2022-10-01T22:45:18.983Z,11.52
2022-10-01T22:47:49.239Z,11.64
2022-10-01T22:50:19.518Z,11.63
2022-10-01T22:52:49.985Z,11.68
2022-10-01T22:55:19.922Z,11.78
2022-10-01T22:57:50.732Z,11.83
2022-10-01T23:00:20.856Z,11.84
2022-10-01T23:02:51.353Z,11.92
2022-10-01T23:05:21.622Z,11.85
2022-10-01T23:07:51.919Z,11.81
2022-10-01T23:10:22.478Z,11.73
2022-10-01T23:12:53.358Z,11.57
2022-10-01T23:15:24.129Z,11.71
2022-10-01T23:17:54.564Z,11.73
2022-10-01T23:20:24.690Z,11.75
2022-10-01T23:22:54.928Z,11.86
2022-10-01T23:25:25.572Z,11.91
2022-10-01T23:27:56.118Z,11.90
2022-10-01T23:30:26.701Z,11.81
2022-10-01T23:32:57.190Z,11.85
2022-10-01T23:35:27.213Z,11.91
2022-10-01T23:37:58.176Z,11.93
2022-10-01T23:40:28.808Z,12.08
2022-10-01T23:42:59.376Z,12.08
2022-10-01T23:45:30.128Z,12.09
2022-10-01T23:48:00.949Z,12.07
2022-10-01T23:50:31.730Z,12.03
2022-10-01T23:53:01.800Z,11.99
2022-10-01T23:55:32.099Z,12.07
2022-10-01T23:58:03.424Z,12.05
